createdAt,value
2018-01-26T00:00:01.421Z,72.30
2018-01-26T00:01:01.430Z,72.49
2018-01-26T00:02:01.430Z,72.77
2018-01-26T00:03:01.436Z,73.14
2018-01-26T00:04:01.442Z,73.43
2018-01-26T00:05:01.465Z,73.62
2018-01-26T00:06:01.454Z,73.81
2018-01-26T00:07:01.460Z,73.43
2018-01-26T00:08:01.465Z,73.33
2018-01-26T00:09:01.473Z,72.86
2018-01-26T00:10:01.478Z,73.33
2018-01-26T00:11:01.484Z,73.24
2018-01-26T00:12:01.490Z,73.43
2018-01-26T00:13:01.495Z,73.43
2018-01-26T00:14:01.499Z,72.96
2018-01-26T00:15:01.510Z,73.43
2018-01-26T00:16:01.514Z,73.14
2018-01-26T00:17:01.520Z,73.14
2018-01-26T00:18:01.522Z,73.33
2018-01-26T00:19:01.530Z,73.52
2018-01-26T00:20:01.537Z,73.52
2018-01-26T00:21:01.541Z,73.90
2018-01-26T00:22:01.545Z,74.09
2018-01-26T00:23:01.552Z,74.00
2018-01-26T00:24:01.560Z,73.81
2018-01-26T00:25:01.566Z,74.00
2018-01-26T00:26:01.569Z,74.00
2018-01-26T00:27:01.575Z,74.19
2018-01-26T00:28:01.583Z,73.71
2018-01-26T00:29:01.589Z,72.58
2018-01-26T00:30:01.594Z,72.02
2018-01-26T00:31:01.598Z,72.20
2018-01-26T00:32:01.605Z,71.92
2018-01-26T00:33:01.609Z,71.92
2018-01-26T00:34:01.614Z,71.92
2018-01-26T00:35:01.621Z,71.54
2018-01-26T00:36:01.627Z,71.73
2018-01-26T00:37:01.640Z,71.92
2018-01-26T00:38:01.638Z,72.02
2018-01-26T00:39:01.645Z,72.02
2018-01-26T00:40:01.649Z,71.73
2018-01-26T00:41:01.655Z,71.64
2018-01-26T00:42:01.661Z,71.73
2018-01-26T00:43:01.667Z,72.02
2018-01-26T00:44:01.674Z,72.67
2018-01-26T00:45:01.680Z,73.14
2018-01-26T00:46:01.684Z,72.49
2018-01-26T00:47:01.692Z,72.20
2018-01-26T00:48:01.695Z,72.02
2018-01-26T00:49:01.702Z,71.92
2018-01-26T00:50:01.706Z,71.26
2018-01-26T00:51:01.716Z,71.92
2018-01-26T00:52:01.719Z,72.02
2018-01-26T00:53:01.724Z,71.83
2018-01-26T00:54:01.730Z,71.83
2018-01-26T00:55:01.735Z,71.92
2018-01-26T00:56:01.742Z,72.02
2018-01-26T00:57:01.748Z,72.49
2018-01-26T00:58:01.752Z,71.73
2018-01-26T00:59:01.759Z,71.54
2018-01-26T01:00:01.765Z,71.35
2018-01-26T01:01:01.770Z,70.97
2018-01-26T01:02:01.776Z,71.07
2018-01-26T01:03:01.781Z,71.07
2018-01-26T01:04:01.787Z,71.64
2018-01-26T01:05:01.793Z,71.26
2018-01-26T01:06:01.801Z,71.35
2018-01-26T01:07:01.808Z,71.83
2018-01-26T01:08:01.812Z,72.11
2018-01-26T01:09:01.819Z,72.58
2018-01-26T01:10:01.824Z,72.67
2018-01-26T01:11:01.827Z,72.77
2018-01-26T01:12:01.835Z,72.96
2018-01-26T01:13:01.840Z,73.43
2018-01-26T01:14:01.844Z,73.24
2018-01-26T01:15:01.851Z,73.43
2018-01-26T01:16:01.856Z,73.33
2018-01-26T01:17:01.862Z,73.24
2018-01-26T01:18:01.867Z,73.90
2018-01-26T01:19:01.874Z,73.62
2018-01-26T01:20:01.879Z,73.52
2018-01-26T01:21:01.885Z,73.81
2018-01-26T01:22:01.892Z,73.81
2018-01-26T01:23:01.896Z,73.33
2018-01-26T01:24:01.904Z,73.71
2018-01-26T01:25:01.909Z,73.71
2018-01-26T01:26:01.918Z,73.71
2018-01-26T01:27:01.920Z,74.00
2018-01-26T01:28:01.924Z,73.71
2018-01-26T01:29:01.931Z,74.00
2018-01-26T01:30:01.935Z,74.09
2018-01-26T01:31:01.940Z,74.95
2018-01-26T01:32:01.947Z,75.04
2018-01-26T01:33:01.956Z,74.76
2018-01-26T01:34:01.961Z,75.04
2018-01-26T01:35:01.964Z,74.95
2018-01-26T01:36:01.969Z,75.04
2018-01-26T01:37:01.976Z,75.89
2018-01-26T01:38:01.980Z,75.42
2018-01-26T01:39:01.985Z,75.42
2018-01-26T01:40:01.990Z,75.51
2018-01-26T01:41:01.997Z,75.79
2018-01-26T01:42:02.001Z,75.70
2018-01-26T01:43:02.006Z,75.70
2018-01-26T01:44:02.012Z,75.60
2018-01-26T01:45:02.017Z,75.60
2018-01-26T01:46:02.025Z,75.51
2018-01-26T01:47:02.028Z,75.42
2018-01-26T01:48:02.034Z,75.60
2018-01-26T01:49:02.041Z,75.42
2018-01-26T01:50:02.043Z,75.04
2018-01-26T01:51:02.050Z,74.95
2018-01-26T01:52:02.054Z,74.95
2018-01-26T01:53:02.060Z,75.13
2018-01-26T01:54:02.072Z,75.70
2018-01-26T01:55:02.074Z,75.60
2018-01-26T01:56:02.077Z,75.04
2018-01-26T01:57:02.081Z,75.04
2018-01-26T01:58:02.085Z,74.85
2018-01-26T01:59:02.091Z,74.76
2018-01-26T02:00:02.098Z,75.32
2018-01-26T02:01:02.105Z,74.76
2018-01-26T02:02:02.107Z,74.28
2018-01-26T02:03:02.112Z,74.95
2018-01-26T02:04:02.118Z,75.13
2018-01-26T02:05:02.143Z,75.13
2018-01-26T02:06:02.129Z,74.66
2018-01-26T02:07:02.138Z,74.85
2018-01-26T02:08:02.141Z,74.76
2018-01-26T02:09:02.145Z,74.85
2018-01-26T02:10:02.150Z,74.66
2018-01-26T02:11:02.157Z,74.76
2018-01-26T02:12:02.162Z,74.95
2018-01-26T02:13:02.168Z,74.47
2018-01-26T02:14:02.171Z,75.13
2018-01-26T02:15:02.178Z,75.32
2018-01-26T02:16:02.189Z,75.51
2018-01-26T02:17:02.192Z,75.32
2018-01-26T02:18:02.194Z,75.79
2018-01-26T02:19:02.200Z,74.95
2018-01-26T02:20:02.205Z,75.32
2018-01-26T02:21:02.210Z,75.04
2018-01-26T02:22:02.215Z,75.04
2018-01-26T02:23:02.222Z,75.13
2018-01-26T02:24:02.229Z,75.13
2018-01-26T02:25:02.233Z,75.13
2018-01-26T02:26:02.237Z,75.42
2018-01-26T02:27:02.244Z,75.32
2018-01-26T02:28:02.249Z,75.89
2018-01-26T02:29:02.256Z,75.32
2018-01-26T02:30:02.260Z,75.60
2018-01-26T02:31:02.266Z,75.04
2018-01-26T02:32:02.272Z,75.13
2018-01-26T02:33:02.276Z,74.76
2018-01-26T02:34:02.295Z,74.95
2018-01-26T02:35:02.287Z,74.38
2018-01-26T02:36:02.293Z,74.19
2018-01-26T02:37:02.299Z,74.38
2018-01-26T02:38:02.304Z,74.38
2018-01-26T02:39:02.312Z,74.28
2018-01-26T02:40:02.315Z,74.00
2018-01-26T02:41:02.323Z,73.90
2018-01-26T02:42:02.325Z,74.19
2018-01-26T02:43:02.331Z,74.00
2018-01-26T02:44:02.338Z,73.90
2018-01-26T02:45:02.343Z,73.81
2018-01-26T02:46:02.347Z,73.81
2018-01-26T02:47:02.357Z,73.90
2018-01-26T02:48:02.359Z,74.00
2018-01-26T02:49:02.365Z,74.09
2018-01-26T02:50:02.370Z,73.90
2018-01-26T02:51:02.375Z,74.19
2018-01-26T02:52:02.380Z,74.00
2018-01-26T02:53:02.386Z,73.90
2018-01-26T02:54:02.392Z,74.19
2018-01-26T02:55:02.401Z,74.47
2018-01-26T02:56:02.404Z,74.28
2018-01-26T02:57:02.409Z,73.90
2018-01-26T02:58:02.415Z,74.19
2018-01-26T02:59:02.420Z,74.38
2018-01-26T03:00:02.427Z,74.57
2018-01-26T03:01:02.432Z,74.95
2018-01-26T03:02:02.436Z,74.76
2018-01-26T03:03:02.444Z,74.57
2018-01-26T03:04:02.448Z,74.66
2018-01-26T03:05:02.458Z,74.66
2018-01-26T03:06:02.458Z,75.13
2018-01-26T03:07:02.464Z,75.23
2018-01-26T03:08:02.470Z,75.04
2018-01-26T03:09:02.478Z,75.79
2018-01-26T03:10:02.484Z,75.89
2018-01-26T03:11:02.487Z,75.98
2018-01-26T03:12:02.493Z,76.74
2018-01-26T03:13:02.502Z,76.64
2018-01-26T03:14:02.505Z,75.98
2018-01-26T03:15:02.510Z,75.98
2018-01-26T03:16:02.515Z,75.70
2018-01-26T03:17:02.522Z,75.04
2018-01-26T03:18:02.525Z,75.32
2018-01-26T03:19:02.532Z,74.76
2018-01-26T03:20:02.538Z,75.04
2018-01-26T03:21:02.543Z,75.04
2018-01-26T03:22:02.548Z,74.95
2018-01-26T03:23:02.561Z,74.76
2018-01-26T03:24:02.559Z,74.76
2018-01-26T03:25:02.566Z,74.57
2018-01-26T03:26:02.570Z,74.76
2018-01-26T03:27:02.577Z,74.76
2018-01-26T03:28:02.584Z,74.47
2018-01-26T03:29:02.588Z,74.76
2018-01-26T03:30:02.594Z,74.76
2018-01-26T03:31:02.605Z,75.04
2018-01-26T03:32:02.604Z,75.70
2018-01-26T03:33:02.612Z,75.89
2018-01-26T03:34:02.616Z,75.79
2018-01-26T03:35:02.621Z,75.89
2018-01-26T03:36:02.626Z,75.60
2018-01-26T03:37:02.632Z,75.98
2018-01-26T03:38:02.644Z,75.51
2018-01-26T03:39:02.642Z,75.89
2018-01-26T03:40:02.651Z,75.79
2018-01-26T03:41:02.654Z,75.60
2018-01-26T03:42:02.660Z,75.13
2018-01-26T03:43:02.665Z,74.38
2018-01-26T03:44:02.671Z,75.32
2018-01-26T03:45:02.675Z,75.13
2018-01-26T03:46:02.681Z,75.32
2018-01-26T03:47:02.687Z,75.04
2018-01-26T03:48:02.693Z,75.04
2018-01-26T03:49:02.700Z,75.13
2018-01-26T03:50:02.702Z,75.32
2018-01-26T03:51:02.709Z,75.23
2018-01-26T03:52:02.714Z,75.04
2018-01-26T03:53:02.719Z,74.85
2018-01-26T03:54:02.725Z,74.95
2018-01-26T03:55:02.732Z,75.13
2018-01-26T03:56:02.736Z,75.70
2018-01-26T03:57:02.745Z,75.60
2018-01-26T03:58:02.746Z,75.79
2018-01-26T03:59:02.752Z,75.89
2018-01-26T04:00:02.758Z,75.23
2018-01-26T04:01:02.765Z,75.79
2018-01-26T04:02:02.767Z,75.32
2018-01-26T04:03:02.774Z,75.04
2018-01-26T04:04:02.779Z,75.51
2018-01-26T04:05:02.785Z,75.70
2018-01-26T04:06:02.789Z,75.89
2018-01-26T04:07:02.794Z,75.60
2018-01-26T04:08:02.801Z,75.89
2018-01-26T04:09:02.806Z,75.89
2018-01-26T04:10:02.811Z,75.79
2018-01-26T04:11:02.817Z,75.79
2018-01-26T04:12:02.823Z,75.79
2018-01-26T04:13:02.828Z,76.07
2018-01-26T04:14:02.832Z,75.89
2018-01-26T04:15:02.838Z,76.74
2018-01-26T04:16:02.844Z,76.45
2018-01-26T04:17:02.849Z,76.45
2018-01-26T04:18:02.854Z,76.45
2018-01-26T04:19:02.859Z,76.83
2018-01-26T04:20:02.865Z,76.93
2018-01-26T04:21:02.869Z,77.40
2018-01-26T04:22:02.875Z,76.93
2018-01-26T04:23:02.880Z,76.64
2018-01-26T04:24:02.887Z,76.93
2018-01-26T04:25:02.892Z,76.74
2018-01-26T04:26:02.896Z,76.26
2018-01-26T04:27:02.902Z,76.55
2018-01-26T04:28:02.906Z,77.02
2018-01-26T04:29:02.912Z,77.02
2018-01-26T04:30:02.923Z,77.40
2018-01-26T04:31:02.923Z,76.83
2018-01-26T04:32:02.928Z,76.45
2018-01-26T04:33:02.931Z,75.89
2018-01-26T04:34:02.937Z,75.79
2018-01-26T04:35:02.942Z,76.07
2018-01-26T04:36:02.947Z,76.17
2018-01-26T04:37:02.955Z,75.70
2018-01-26T04:38:02.961Z,75.04
2018-01-26T04:39:02.965Z,75.04
2018-01-26T04:40:02.972Z,74.95
2018-01-26T04:41:02.976Z,74.95
2018-01-26T04:42:02.980Z,75.04
2018-01-26T04:43:02.986Z,74.66
2018-01-26T04:44:02.991Z,74.66
2018-01-26T04:45:02.998Z,75.23
2018-01-26T04:46:03.001Z,74.95
2018-01-26T04:47:03.007Z,74.95
2018-01-26T04:48:03.013Z,74.85
2018-01-26T04:49:03.017Z,74.76
2018-01-26T04:50:03.022Z,74.85
2018-01-26T04:51:03.028Z,74.85
2018-01-26T04:52:03.034Z,74.95
2018-01-26T04:53:03.041Z,74.66
2018-01-26T04:54:03.043Z,75.32
2018-01-26T04:55:03.051Z,74.76
2018-01-26T04:56:03.053Z,74.47
2018-01-26T04:57:03.060Z,74.85
2018-01-26T04:58:03.066Z,74.85
2018-01-26T04:59:03.071Z,75.23
2018-01-26T05:00:03.076Z,75.51
2018-01-26T05:01:03.083Z,75.79
2018-01-26T05:02:03.086Z,76.36
2018-01-26T05:03:03.091Z,76.45
2018-01-26T05:04:03.098Z,76.64
2018-01-26T05:05:03.103Z,76.26
2018-01-26T05:06:03.108Z,76.64
2018-01-26T05:07:03.115Z,75.79
2018-01-26T05:08:03.121Z,76.36
2018-01-26T05:09:03.125Z,76.55
2018-01-26T05:10:03.129Z,76.36
2018-01-26T05:11:03.137Z,76.93
2018-01-26T05:12:03.141Z,76.74
2018-01-26T05:13:03.145Z,76.55
2018-01-26T05:14:03.151Z,75.79
2018-01-26T05:15:03.155Z,75.98
2018-01-26T05:16:03.162Z,76.45
2018-01-26T05:17:03.167Z,75.98
2018-01-26T05:18:03.171Z,75.70
2018-01-26T05:19:03.178Z,75.79
2018-01-26T05:20:03.184Z,75.70
2018-01-26T05:21:03.191Z,75.79
2018-01-26T05:22:03.196Z,75.79
2018-01-26T05:23:03.202Z,75.70
2018-01-26T05:24:03.206Z,75.98
2018-01-26T05:25:03.213Z,76.64
2018-01-26T05:26:03.214Z,76.45
2018-01-26T05:27:03.220Z,75.98
2018-01-26T05:28:03.226Z,75.79
2018-01-26T05:29:03.281Z,75.89
2018-01-26T05:30:03.249Z,75.79
2018-01-26T05:31:03.242Z,76.17
2018-01-26T05:32:03.248Z,76.45
2018-01-26T05:33:03.253Z,76.26
2018-01-26T05:34:03.255Z,76.64
2018-01-26T05:35:03.262Z,76.74
2018-01-26T05:36:03.268Z,76.07
2018-01-26T05:37:03.273Z,75.89
2018-01-26T05:38:03.279Z,75.79
2018-01-26T05:39:03.285Z,76.17
2018-01-26T05:40:03.290Z,75.70
2018-01-26T05:41:03.296Z,75.60
2018-01-26T05:42:03.300Z,75.42
2018-01-26T05:43:03.309Z,75.51
2018-01-26T05:44:03.361Z,75.60
2018-01-26T05:45:03.319Z,75.51
2018-01-26T05:46:03.321Z,75.89
2018-01-26T05:47:03.329Z,76.64
2018-01-26T05:48:03.332Z,76.64
2018-01-26T05:49:03.337Z,76.74
2018-01-26T05:50:03.344Z,76.26
2018-01-26T05:51:03.349Z,76.36
2018-01-26T05:52:03.355Z,76.45
2018-01-26T05:53:03.359Z,76.93
2018-01-26T05:54:03.364Z,77.50
2018-01-26T05:55:03.372Z,76.93
2018-01-26T05:56:03.384Z,77.02
2018-01-26T05:57:03.380Z,77.40
2018-01-26T05:58:03.386Z,77.12
2018-01-26T05:59:03.396Z,76.93
2018-01-26T06:00:03.397Z,76.17
2018-01-26T06:01:03.401Z,77.02
2018-01-26T06:02:03.408Z,77.87
2018-01-26T06:03:03.413Z,77.69
2018-01-26T06:04:03.418Z,77.87
2018-01-26T06:05:03.424Z,77.21
2018-01-26T06:06:03.428Z,77.31
2018-01-26T06:07:03.435Z,77.97
2018-01-26T06:08:03.438Z,78.06
2018-01-26T06:09:03.444Z,77.87
2018-01-26T06:10:03.449Z,77.78
2018-01-26T06:11:03.454Z,77.40
2018-01-26T06:12:03.460Z,77.02
2018-01-26T06:13:03.470Z,77.12
2018-01-26T06:14:03.469Z,77.31
2018-01-26T06:15:03.475Z,77.02
2018-01-26T06:16:03.482Z,77.02
2018-01-26T06:17:03.493Z,77.12
2018-01-26T06:18:03.491Z,77.21
2018-01-26T06:19:03.497Z,77.40
2018-01-26T06:20:03.503Z,77.69
2018-01-26T06:21:03.509Z,78.06
2018-01-26T06:22:03.513Z,77.78
2018-01-26T06:23:03.518Z,77.59
2018-01-26T06:24:03.524Z,77.31
2018-01-26T06:25:03.530Z,76.55
2018-01-26T06:26:03.533Z,76.93
2018-01-26T06:27:03.539Z,76.64
2018-01-26T06:28:03.544Z,76.93
2018-01-26T06:29:03.549Z,76.93
2018-01-26T06:30:03.554Z,76.83
2018-01-26T06:31:03.560Z,76.93
2018-01-26T06:32:03.565Z,77.21
2018-01-26T06:33:03.572Z,76.83
2018-01-26T06:34:03.574Z,76.83
2018-01-26T06:35:03.582Z,76.93
2018-01-26T06:36:03.589Z,76.93
2018-01-26T06:37:03.592Z,77.12
2018-01-26T06:38:03.597Z,76.45
2018-01-26T06:39:03.602Z,76.64
2018-01-26T06:40:03.607Z,76.45
2018-01-26T06:41:03.613Z,76.45
2018-01-26T06:42:03.619Z,76.55
2018-01-26T06:43:03.623Z,76.17
2018-01-26T06:44:03.628Z,76.07
2018-01-26T06:45:03.634Z,75.89
2018-01-26T06:46:03.639Z,75.79
2018-01-26T06:47:03.644Z,75.42
2018-01-26T06:48:03.649Z,75.60
2018-01-26T06:49:03.656Z,75.32
2018-01-26T06:50:03.660Z,75.04
2018-01-26T06:51:03.665Z,74.95
2018-01-26T06:52:03.669Z,74.57
2018-01-26T06:53:03.676Z,73.90
2018-01-26T06:54:03.679Z,73.52
2018-01-26T06:55:03.686Z,73.62
2018-01-26T06:56:03.690Z,74.47
2018-01-26T06:57:03.697Z,74.09
2018-01-26T06:58:03.702Z,74.28
2018-01-26T06:59:03.706Z,73.90
2018-01-26T07:00:03.714Z,73.52
2018-01-26T07:01:03.718Z,74.00
2018-01-26T07:02:03.722Z,73.81
2018-01-26T07:03:03.727Z,74.09
2018-01-26T07:04:03.733Z,73.62
2018-01-26T07:05:03.738Z,73.43
2018-01-26T07:06:03.746Z,73.62
2018-01-26T07:07:03.748Z,74.38
2018-01-26T07:08:03.753Z,74.00
2018-01-26T07:09:03.760Z,74.47
2018-01-26T07:10:03.764Z,74.57
2018-01-26T07:11:03.769Z,73.81
2018-01-26T07:12:03.775Z,73.33
2018-01-26T07:13:03.782Z,72.77
2018-01-26T07:14:03.822Z,72.96
2018-01-26T07:15:03.792Z,72.86
2018-01-26T07:16:03.795Z,72.86
2018-01-26T07:17:03.802Z,72.49
2018-01-26T07:18:03.806Z,72.58
2018-01-26T07:19:03.814Z,72.96
2018-01-26T07:20:03.817Z,72.77
2018-01-26T07:21:03.824Z,72.96
2018-01-26T07:22:03.829Z,72.77
2018-01-26T07:23:03.834Z,72.77
2018-01-26T07:24:03.842Z,72.20
2018-01-26T07:25:03.847Z,71.45
2018-01-26T07:26:03.852Z,71.54
2018-01-26T07:27:03.855Z,71.54
2018-01-26T07:28:03.863Z,71.16
2018-01-26T07:29:03.869Z,71.83
2018-01-26T07:30:03.871Z,72.11
2018-01-26T07:31:03.878Z,72.39
2018-01-26T07:32:03.886Z,72.30
2018-01-26T07:33:03.890Z,72.58
2018-01-26T07:34:03.896Z,72.30
2018-01-26T07:35:03.900Z,71.92
2018-01-26T07:36:03.904Z,71.54
2018-01-26T07:37:03.912Z,71.26
2018-01-26T07:38:03.916Z,71.54
2018-01-26T07:39:03.922Z,71.45
2018-01-26T07:40:03.929Z,71.54
2018-01-26T07:41:03.934Z,71.92
2018-01-26T07:42:03.937Z,71.73
2018-01-26T07:43:03.945Z,71.26
2018-01-26T07:44:03.951Z,71.26
2018-01-26T07:45:03.956Z,71.73
2018-01-26T07:46:03.962Z,72.58
2018-01-26T07:47:03.968Z,73.09
2018-01-26T07:48:03.976Z,72.86
2018-01-26T07:49:03.979Z,72.96
2018-01-26T07:50:03.983Z,71.73
2018-01-26T07:51:03.989Z,71.35
2018-01-26T07:52:03.996Z,71.45
2018-01-26T07:53:04.001Z,71.45
2018-01-26T07:54:04.008Z,71.07
2018-01-26T07:55:04.017Z,71.26
2018-01-26T07:56:04.027Z,71.35
2018-01-26T07:57:04.023Z,71.54
2018-01-26T07:58:04.028Z,71.45
2018-01-26T07:59:04.035Z,71.54
2018-01-26T08:00:04.040Z,72.02
2018-01-26T08:01:04.049Z,72.49
2018-01-26T08:02:04.052Z,72.58
2018-01-26T08:03:04.059Z,72.49
2018-01-26T08:04:04.068Z,71.83
2018-01-26T08:05:04.070Z,71.64
2018-01-26T08:06:04.077Z,71.73
2018-01-26T08:07:04.081Z,72.11
2018-01-26T08:08:04.087Z,72.02
2018-01-26T08:09:04.093Z,72.20
2018-01-26T08:10:04.097Z,72.24
2018-01-26T08:11:04.104Z,72.05
2018-01-26T08:12:04.111Z,72.33
2018-01-26T08:13:04.115Z,71.86
2018-01-26T08:14:04.123Z,71.58
2018-01-26T08:15:04.126Z,71.30
2018-01-26T08:16:04.132Z,71.20
2018-01-26T08:17:04.139Z,71.11
2018-01-26T08:18:04.144Z,70.92
2018-01-26T08:19:04.154Z,70.82
2018-01-26T08:20:04.158Z,70.35
2018-01-26T08:21:04.167Z,70.44
2018-01-26T08:22:04.166Z,70.82
2018-01-26T08:23:04.172Z,70.82
2018-01-26T08:24:04.182Z,70.35
2018-01-26T08:25:04.186Z,70.54
2018-01-26T08:26:04.192Z,70.35
2018-01-26T08:27:04.197Z,70.25
2018-01-26T08:28:04.204Z,70.44
2018-01-26T08:29:04.208Z,70.73
2018-01-26T08:30:04.215Z,70.06
2018-01-26T08:31:04.221Z,69.87
2018-01-26T08:32:04.229Z,69.59
2018-01-26T08:33:04.233Z,69.53
2018-01-26T08:34:04.240Z,69.15
2018-01-26T08:35:04.248Z,68.77
2018-01-26T08:36:04.252Z,69.06
2018-01-26T08:37:04.258Z,68.68
2018-01-26T08:38:04.263Z,68.30
2018-01-26T08:39:04.270Z,67.93
2018-01-26T08:40:04.277Z,67.07
2018-01-26T08:41:04.282Z,67.45
2018-01-26T08:42:04.290Z,67.36
2018-01-26T08:43:04.296Z,67.17
2018-01-26T08:44:04.302Z,66.79
2018-01-26T08:45:04.309Z,66.69
2018-01-26T08:46:04.316Z,67.26
2018-01-26T08:47:04.324Z,67.36
2018-01-26T08:48:04.329Z,67.55
2018-01-26T08:49:04.335Z,68.12
2018-01-26T08:50:04.342Z,68.30
2018-01-26T08:51:04.348Z,68.02
2018-01-26T08:52:04.356Z,66.98
2018-01-26T08:53:04.361Z,66.13
2018-01-26T08:54:04.368Z,66.31
2018-01-26T08:55:04.375Z,66.13
2018-01-26T08:56:04.381Z,66.69
2018-01-26T08:57:04.388Z,66.31
2018-01-26T08:58:04.395Z,66.69
2018-01-26T08:59:04.409Z,66.41
2018-01-26T09:00:04.411Z,66.41
2018-01-26T09:01:04.416Z,66.35
2018-01-26T09:02:04.421Z,66.25
2018-01-26T09:03:04.429Z,66.73
2018-01-26T09:04:04.435Z,66.63
2018-01-26T09:05:04.444Z,65.88
2018-01-26T09:06:04.450Z,66.92
2018-01-26T09:07:04.457Z,66.63
2018-01-26T09:08:04.464Z,66.35
2018-01-26T09:09:04.471Z,65.78
2018-01-26T09:10:04.478Z,65.12
2018-01-26T09:11:04.485Z,65.12
2018-01-26T09:12:04.492Z,65.12
2018-01-26T09:13:04.499Z,64.45
2018-01-26T09:14:04.506Z,63.60
2018-01-26T09:15:04.512Z,64.17
2018-01-26T09:16:04.521Z,62.94
2018-01-26T09:17:04.530Z,63.04
2018-01-26T09:18:04.533Z,62.97
2018-01-26T09:19:04.544Z,62.02
2018-01-26T09:20:04.550Z,62.02
2018-01-26T09:21:04.560Z,61.55
2018-01-26T09:22:04.565Z,61.90
2018-01-26T09:23:04.572Z,63.07
2018-01-26T09:24:04.583Z,62.88
2018-01-26T09:25:04.598Z,63.82
2018-01-26T09:26:04.595Z,63.64
2018-01-26T09:27:04.602Z,62.97
2018-01-26T09:28:04.633Z,62.88
2018-01-26T09:29:04.618Z,62.69
2018-01-26T09:30:04.625Z,62.12
2018-01-26T09:31:04.631Z,61.83
2018-01-26T09:32:04.641Z,61.83
2018-01-26T09:33:04.648Z,61.74
2018-01-26T09:34:04.657Z,60.32
2018-01-26T09:35:04.665Z,59.75
2018-01-26T09:36:04.670Z,60.51
2018-01-26T09:37:04.678Z,60.51
2018-01-26T09:38:04.688Z,61.55
2018-01-26T09:39:04.694Z,60.89
2018-01-26T09:40:04.708Z,61.49
2018-01-26T09:41:04.710Z,61.18
2018-01-26T09:42:04.717Z,62.34
2018-01-26T09:43:04.726Z,62.05
2018-01-26T09:44:04.733Z,63.20
2018-01-26T09:45:04.742Z,61.40
2018-01-26T09:46:04.749Z,60.64
2018-01-26T09:47:04.758Z,60.35
2018-01-26T09:48:04.767Z,60.73
2018-01-26T09:49:04.773Z,61.11
2018-01-26T09:50:04.780Z,61.40
2018-01-26T09:51:04.789Z,61.02
2018-01-26T09:52:04.799Z,60.44
2018-01-26T09:53:04.807Z,59.88
2018-01-26T09:54:04.814Z,59.44
2018-01-26T09:55:04.822Z,59.34
2018-01-26T09:56:04.829Z,58.01
2018-01-26T09:57:04.841Z,57.60
2018-01-26T09:58:04.847Z,57.70
2018-01-26T09:59:04.855Z,57.89
2018-01-26T10:00:04.874Z,58.17
2018-01-26T10:01:04.872Z,59.69
2018-01-26T10:02:04.880Z,60.06
2018-01-26T10:03:04.889Z,59.50
2018-01-26T10:04:04.898Z,59.81
2018-01-26T10:05:04.907Z,59.25
2018-01-26T10:06:04.915Z,59.34
2018-01-26T10:07:04.924Z,59.44
2018-01-26T10:08:04.933Z,59.05
2018-01-26T10:09:04.941Z,59.15
2018-01-26T10:10:04.951Z,58.77
2018-01-26T10:11:04.959Z,58.01
2018-01-26T10:12:04.968Z,57.64
2018-01-26T10:13:04.980Z,57.51
2018-01-26T10:14:04.984Z,57.42
2018-01-26T10:15:04.994Z,59.12
2018-01-26T10:16:05.004Z,57.79
2018-01-26T10:17:05.016Z,58.93
2018-01-26T10:18:05.020Z,59.31
2018-01-26T10:19:05.032Z,59.03
2018-01-26T10:20:05.040Z,59.44
2018-01-26T10:21:05.054Z,59.27
2018-01-26T10:22:05.056Z,58.36
2018-01-26T10:23:05.066Z,57.79
2018-01-26T10:24:05.074Z,57.62
2018-01-26T10:25:05.086Z,56.32
2018-01-26T10:26:05.093Z,53.54
2018-01-26T10:27:05.104Z,53.00
2018-01-26T10:28:05.116Z,49.74
2018-01-26T10:29:05.125Z,49.34
2018-01-26T10:30:05.135Z,51.24
2018-01-26T10:31:05.141Z,51.24
2018-01-26T10:32:05.155Z,51.12
2018-01-26T10:33:05.164Z,51.31
2018-01-26T10:34:05.173Z,51.59
2018-01-26T10:35:05.184Z,52.26
2018-01-26T10:36:05.193Z,53.49
2018-01-26T10:37:05.204Z,55.26
2018-01-26T10:38:05.262Z,56.40
2018-01-26T10:39:05.225Z,56.30
2018-01-26T10:40:05.236Z,55.55
2018-01-26T10:41:05.247Z,56.30
2018-01-26T10:42:05.254Z,57.57
2018-01-26T10:43:05.266Z,56.62
2018-01-26T10:44:05.275Z,54.63
2018-01-26T10:45:05.286Z,53.87
2018-01-26T10:46:05.296Z,53.99
2018-01-26T10:47:05.312Z,52.95
2018-01-26T10:48:05.315Z,52.37
2018-01-26T10:49:05.326Z,52.00
2018-01-26T10:50:05.339Z,51.24
2018-01-26T10:51:05.351Z,51.72
2018-01-26T10:52:05.359Z,52.37
2018-01-26T10:53:05.368Z,52.76
2018-01-26T10:54:05.426Z,53.52
2018-01-26T10:55:05.393Z,54.94
2018-01-26T10:56:05.398Z,54.15
2018-01-26T10:57:05.411Z,53.77
2018-01-26T10:58:05.418Z,53.84
2018-01-26T10:59:05.430Z,53.84
2018-01-26T11:00:05.440Z,53.94
2018-01-26T11:01:05.452Z,54.32
2018-01-26T11:02:05.461Z,55.26
2018-01-26T11:03:05.483Z,54.98
2018-01-26T11:04:05.481Z,55.93
2018-01-26T11:05:05.495Z,56.24
2018-01-26T11:06:05.502Z,56.52
2018-01-26T11:07:05.517Z,56.52
2018-01-26T11:08:05.521Z,56.24
2018-01-26T11:09:05.581Z,56.43
2018-01-26T11:10:05.541Z,56.52
2018-01-26T11:11:05.552Z,56.46
2018-01-26T11:12:05.563Z,56.36
2018-01-26T11:13:05.575Z,54.85
2018-01-26T11:14:05.584Z,53.87
2018-01-26T11:15:05.594Z,53.39
2018-01-26T11:16:05.605Z,54.18
2018-01-26T11:17:05.617Z,54.53
2018-01-26T11:18:05.626Z,54.37
2018-01-26T11:19:05.637Z,54.56
2018-01-26T11:20:05.649Z,53.58
2018-01-26T11:21:05.658Z,52.83
2018-01-26T11:22:05.667Z,52.64
2018-01-26T11:23:05.679Z,52.64
2018-01-26T11:24:05.690Z,51.50
2018-01-26T11:25:05.702Z,52.00
2018-01-26T11:26:05.717Z,52.00
2018-01-26T11:27:05.723Z,51.43
2018-01-26T11:28:05.739Z,51.05
2018-01-26T11:29:05.744Z,51.83
2018-01-26T11:30:05.756Z,51.01
2018-01-26T11:31:05.765Z,51.01
2018-01-26T11:32:05.779Z,50.34
2018-01-26T11:33:05.788Z,49.98
2018-01-26T11:34:05.800Z,49.60
2018-01-26T11:35:05.817Z,48.49
2018-01-26T11:36:05.822Z,48.51
2018-01-26T11:37:05.833Z,46.80
2018-01-26T11:38:05.845Z,45.18
2018-01-26T11:39:05.856Z,45.35
2018-01-26T11:40:05.869Z,44.61
2018-01-26T11:41:05.881Z,44.33
2018-01-26T11:42:05.892Z,43.40
2018-01-26T11:43:05.907Z,42.80
2018-01-26T11:44:05.973Z,44.13
2018-01-26T11:45:05.932Z,44.61
2018-01-26T11:46:05.943Z,44.80
2018-01-26T11:47:05.953Z,45.18
2018-01-26T11:48:06.002Z,44.33
2018-01-26T11:49:05.979Z,44.78
2018-01-26T11:50:05.990Z,43.95
2018-01-26T11:51:06.041Z,43.47
2018-01-26T11:52:06.018Z,44.13
2018-01-26T11:53:06.029Z,44.23
2018-01-26T11:54:06.040Z,44.90
2018-01-26T11:55:06.054Z,44.23
2018-01-26T11:56:06.068Z,43.28
2018-01-26T11:57:06.079Z,42.61
2018-01-26T11:58:06.092Z,42.33
2018-01-26T11:59:06.104Z,42.52
2018-01-26T12:00:06.130Z,42.33
2018-01-26T12:01:06.132Z,42.54
2018-01-26T12:02:06.143Z,42.24
2018-01-26T12:03:06.158Z,42.69
2018-01-26T12:04:06.170Z,44.02
2018-01-26T12:05:06.182Z,45.31
2018-01-26T12:06:06.194Z,47.58
2018-01-26T12:07:06.219Z,47.30
2018-01-26T12:08:06.226Z,47.66
2018-01-26T12:09:06.234Z,48.54
2018-01-26T12:10:06.251Z,47.97
2018-01-26T12:11:06.262Z,48.37
2018-01-26T12:12:06.275Z,48.49
2018-01-26T12:13:06.291Z,47.16
2018-01-26T12:14:06.302Z,46.11
2018-01-26T12:15:06.313Z,45.83
2018-01-26T12:16:06.327Z,44.67
2018-01-26T12:17:06.342Z,45.40
2018-01-26T12:18:06.358Z,47.28
2018-01-26T12:19:06.367Z,49.93
2018-01-26T12:20:06.380Z,50.34
2018-01-26T12:21:06.396Z,49.96
2018-01-26T12:22:06.411Z,48.75
2018-01-26T12:23:06.421Z,47.34
2018-01-26T12:24:06.459Z,45.33
2018-01-26T12:25:06.447Z,45.52
2018-01-26T12:26:06.460Z,46.90
2018-01-26T12:27:06.473Z,49.82
2018-01-26T12:28:06.489Z,50.89
2018-01-26T12:29:06.501Z,50.98
2018-01-26T12:30:06.515Z,50.62
2018-01-26T12:31:06.527Z,49.96
2018-01-26T12:32:06.541Z,49.79
2018-01-26T12:33:06.554Z,48.66
2018-01-26T12:34:06.566Z,48.46
2018-01-26T12:35:06.579Z,48.39
2018-01-26T12:36:06.592Z,46.20
2018-01-26T12:37:06.609Z,46.06
2018-01-26T12:38:06.618Z,47.87
2018-01-26T12:39:06.633Z,49.27
2018-01-26T12:40:06.645Z,51.33
2018-01-26T12:41:06.659Z,53.49
2018-01-26T12:42:06.671Z,54.25
2018-01-26T12:43:06.686Z,56.12
2018-01-26T12:44:06.698Z,57.25
2018-01-26T12:45:06.715Z,57.66
2018-01-26T12:46:06.722Z,57.57
2018-01-26T12:47:06.736Z,56.27
2018-01-26T12:48:06.749Z,54.18
2018-01-26T12:49:06.761Z,52.31
2018-01-26T12:50:06.774Z,51.10
2018-01-26T12:51:06.790Z,51.20
2018-01-26T12:52:06.804Z,50.18